Time;durP1;ratioP1;P1;durP2;ratioP2;P2;SDS_P1;SDS_P2;PMS_P1;PMS_P2;Temp;Humidity;BMP_temperature;BMP_pressure;BME280_temperature;BME280_humidity;BME280_pressure;Samples;Min_cycle;Max_cycle;Signal;HPM_P1;HPM_P2
2022/03/22 00:01:43;;;;;;;14.38;7.35;;;;;;;;;;5031770;28;20037;-88
2022/03/22 00:04:08;;;;;;;15.80;7.82;;;;;;;;;;5033474;28;20105;-89
2022/03/22 00:06:34;;;;;;;13.30;7.35;;;;;;;;;;5034373;28;20480;-89
2022/03/22 00:08:59;;;;;;;12.63;7.28;;;;;;;;;;5033919;28;20462;-90
2022/03/22 00:11:24;;;;;;;13.98;7.45;;;;;;;;;;5034386;28;20017;-90
2022/03/22 00:13:49;;;;;;;16.33;7.78;;;;;;;;;;5033262;28;20033;-89
2022/03/22 00:16:15;;;;;;;16.58;7.28;;;;;;;;;;5033063;28;20029;-90
2022/03/22 00:18:40;;;;;;;15.45;7.65;;;;;;;;;;5023075;28;20549;-89
2022/03/22 00:21:08;;;;;;;11.63;6.40;;;;;;;;;;5013269;28;20425;-91
2022/03/22 00:23:34;;;;;;;13.60;7.38;;;;;;;;;;5012506;28;20021;-90
2022/03/22 00:26:00;;;;;;;12.40;6.88;;;;;;;;;;5012729;28;20025;-91
2022/03/22 00:28:25;;;;;;;18.25;6.75;;;;;;;;;;5014572;28;20037;-90
2022/03/22 00:30:50;;;;;;;13.85;7.30;;;;;;;;;;5013708;28;20077;-90
2022/03/22 00:33:16;;;;;;;15.95;7.75;;;;;;;;;;5016490;28;20504;-90
2022/03/22 00:35:41;;;;;;;12.90;7.88;;;;;;;;;;5030694;28;20018;-89
2022/03/22 00:38:09;;;;;;;12.75;6.40;;;;;;;;;;5013629;28;20465;-87
2022/03/22 00:40:37;;;;;;;15.15;7.43;;;;;;;;;;5013079;28;20033;-88
2022/03/22 00:43:02;;;;;;;14.82;6.93;;;;;;;;;;5012246;28;20080;-88
2022/03/22 00:45:31;;;;;;;16.08;7.20;;;;;;;;;;5013149;28;20390;-87
2022/03/22 00:47:58;;;;;;;14.43;7.30;;;;;;;;;;5012027;28;20071;-88
2022/03/22 00:50:28;;;;;;;15.30;7.45;;;;;;;;;;5018991;28;20028;-88
2022/03/22 00:52:54;;;;;;;14.32;7.38;;;;;;;;;;5016066;28;20014;-89
2022/03/22 00:55:23;;;;;;;13.20;7.40;;;;;;;;;;5032424;28;20024;-89
2022/03/22 00:57:48;;;;;;;13.70;7.30;;;;;;;;;;5032375;28;20022;-89
2022/03/22 01:00:13;;;;;;;14.30;7.50;;;;;;;;;;5033261;28;20495;-86
2022/03/22 01:02:40;;;;;;;15.90;7.75;;;;;;;;;;5027057;23;20038;-77
2022/03/22 01:05:07;;;;;;;17.13;7.63;;;;;;;;;;5011712;28;20117;-78
2022/03/22 01:07:33;;;;;;;14.55;7.68;;;;;;;;;;5011211;28;20030;-77
2022/03/22 01:09:59;;;;;;;18.67;8.05;;;;;;;;;;5015338;28;20049;-77
2022/03/22 01:12:24;;;;;;;18.65;8.10;;;;;;;;;;5011785;28;20018;-77
2022/03/22 01:14:49;;;;;;;16.20;8.30;;;;;;;;;;5013664;28;20473;-80
2022/03/22 01:17:15;;;;;;;14.88;6.95;;;;;;;;;;5011691;28;20428;-79
2022/03/22 01:19:40;;;;;;;16.38;7.75;;;;;;;;;;5011613;28;20073;-79
2022/03/22 01:22:05;;;;;;;12.73;8.32;;;;;;;;;;5012502;28;20030;-79
2022/03/22 01:24:31;;;;;;;12.50;7.55;;;;;;;;;;5012353;28;20010;-79
2022/03/22 01:26:56;;;;;;;13.45;7.25;;;;;;;;;;5015993;28;20061;-79
2022/03/22 01:29:22;;;;;;;14.88;7.90;;;;;;;;;;5017542;28;20108;-78
2022/03/22 01:31:49;;;;;;;12.70;7.28;;;;;;;;;;5015624;28;20014;-78
2022/03/22 01:34:14;;;;;;;14.75;6.97;;;;;;;;;;5014011;28;20032;-78
2022/03/22 01:36:39;;;;;;;13.98;7.78;;;;;;;;;;5015303;28;20018;-77
2022/03/22 01:39:05;;;;;;;12.32;7.30;;;;;;;;;;5015590;28;20018;-78
2022/03/22 01:41:30;;;;;;;18.10;7.15;;;;;;;;;;5013863;28;20021;-78
2022/03/22 01:43:55;;;;;;;13.68;8.07;;;;;;;;;;5015348;28;20061;-78
2022/03/22 01:46:23;;;;;;;13.60;7.28;;;;;;;;;;5014672;28;20384;-78
2022/03/22 01:48:49;;;;;;;11.67;7.20;;;;;;;;;;5013982;28;20020;-80
2022/03/22 01:51:14;;;;;;;11.55;7.13;;;;;;;;;;5015241;28;20018;-78
2022/03/22 01:53:40;;;;;;;15.45;7.22;;;;;;;;;;5018434;28;20028;-78
2022/03/22 01:56:05;;;;;;;13.68;7.57;;;;;;;;;;5016919;28;20480;-77
2022/03/22 01:58:31;;;;;;;14.23;7.53;;;;;;;;;;5017519;28;20049;-78
2022/03/22 02:05:51;;;;;;;13.05;6.93;;;;;;;;;;5017775;28;20076;-78
2022/03/22 02:06:31;;;;;;;17.67;6.53;;;;;;;;;;5023191;28;20033;-79
2022/03/22 02:08:56;;;;;;;13.30;6.40;;;;;;;;;;5021273;28;20227;-78
2022/03/22 02:11:21;;;;;;;17.50;7.50;;;;;;;;;;5021662;28;20623;-77
2022/03/22 02:13:47;;;;;;;14.80;7.32;;;;;;;;;;5021314;28;20100;-78
2022/03/22 02:16:12;;;;;;;16.08;7.80;;;;;;;;;;5020241;28;20041;-78
2022/03/22 02:18:37;;;;;;;15.85;7.63;;;;;;;;;;5021071;28;20025;-78
2022/03/22 02:21:03;;;;;;;13.77;7.53;;;;;;;;;;5022437;28;20084;-78
2022/03/22 02:23:47;;;;;;;19.45;7.93;;;;;;;;;;5021328;28;20026;-78
2022/03/22 02:26:12;;;;;;;14.23;7.38;;;;;;;;;;5023429;28;20025;-77
2022/03/22 02:28:38;;;;;;;14.57;8.02;;;;;;;;;;5024252;28;20061;-79
2022/03/22 02:31:06;;;;;;;14.02;8.48;;;;;;;;;;5024549;28;20026;-80
2022/03/22 02:33:31;;;;;;;15.38;6.93;;;;;;;;;;5022392;28;20051;-78
2022/03/22 02:35:56;;;;;;;15.18;7.97;;;;;;;;;;5022806;28;20046;-79
2022/03/22 02:38:21;;;;;;;13.70;7.50;;;;;;;;;;5021578;28;20028;-79
2022/03/22 02:40:47;;;;;;;17.35;8.25;;;;;;;;;;5019723;28;20462;-79
2022/03/22 02:43:12;;;;;;;13.77;7.35;;;;;;;;;;5023920;28;20032;-79
2022/03/22 02:45:37;;;;;;;15.45;7.95;;;;;;;;;;5022774;28;20029;-79
2022/03/22 02:48:02;;;;;;;16.83;8.30;;;;;;;;;;5019914;28;20026;-79
2022/03/22 02:50:28;;;;;;;13.88;7.90;;;;;;;;;;5021631;28;20025;-78
2022/03/22 02:52:53;;;;;;;14.65;7.00;;;;;;;;;;5022713;28;20040;-77
2022/03/22 02:55:21;;;;;;;13.10;7.38;;;;;;;;;;5023272;28;20025;-78
2022/03/22 02:57:46;;;;;;;15.18;7.20;;;;;;;;;;5022850;28;20014;-78
2022/03/22 03:00:11;;;;;;;15.27;7.68;;;;;;;;;;5026304;28;20091;-78
2022/03/22 03:02:44;;;;;;;13.68;7.35;;;;;;;;;;5018305;28;20116;-78
2022/03/22 03:05:10;;;;;;;16.70;7.78;;;;;;;;;;5013413;28;20022;-78
2022/03/22 03:07:36;;;;;;;14.73;7.65;;;;;;;;;;5018419;28;20078;-78
2022/03/22 03:10:01;;;;;;;15.38;7.47;;;;;;;;;;5018381;28;20026;-78
2022/03/22 03:12:26;;;;;;;14.85;7.43;;;;;;;;;;5018401;28;20103;-79
2022/03/22 03:14:52;;;;;;;14.07;7.60;;;;;;;;;;5016518;28;20117;-78
2022/03/22 03:17:17;;;;;;;16.58;7.82;;;;;;;;;;5020280;28;20033;-78
2022/03/22 03:19:42;;;;;;;15.50;8.70;;;;;;;;;;5017618;28;20455;-79
2022/03/22 03:22:08;;;;;;;14.48;7.40;;;;;;;;;;5017101;28;20028;-79
2022/03/22 03:24:34;;;;;;;17.05;7.32;;;;;;;;;;5017358;28;20014;-78
2022/03/22 03:27:00;;;;;;;16.17;8.15;;;;;;;;;;5017439;28;20515;-78
2022/03/22 03:29:25;;;;;;;14.27;7.22;;;;;;;;;;5017899;28;20014;-78
2022/03/22 03:31:50;;;;;;;13.18;7.40;;;;;;;;;;5016715;28;20519;-78
2022/03/22 03:34:16;;;;;;;14.38;7.07;;;;;;;;;;5014645;28;20476;-78
2022/03/22 03:36:41;;;;;;;16.83;7.30;;;;;;;;;;5013700;28;20491;-78
2022/03/22 03:39:07;;;;;;;14.75;8.07;;;;;;;;;;5015202;28;20013;-78
2022/03/22 03:47:11;;;;;;;16.60;7.60;;;;;;;;;;5015057;28;20028;-77
2022/03/22 03:49:41;;;;;;;15.52;7.60;;;;;;;;;;5013897;28;20025;-78
2022/03/22 03:52:07;;;;;;;16.92;7.32;;;;;;;;;;5013852;28;20096;-78
2022/03/22 03:54:32;;;;;;;14.57;7.45;;;;;;;;;;5015173;28;20053;-77
2022/03/22 03:56:58;;;;;;;16.45;8.25;;;;;;;;;;5015545;28;20030;-77
2022/03/22 03:59:23;;;;;;;17.73;8.70;;;;;;;;;;5016981;28;20046;-79
2022/03/22 04:01:48;;;;;;;18.95;8.85;;;;;;;;;;5015423;28;20026;-79
2022/03/22 04:04:13;;;;;;;15.23;8.20;;;;;;;;;;5014497;28;20022;-78
2022/03/22 04:06:38;;;;;;;12.70;7.45;;;;;;;;;;5013369;28;20018;-78
2022/03/22 04:09:04;;;;;;;12.55;7.32;;;;;;;;;;5012789;28;20527;-78
2022/03/22 04:11:29;;;;;;;14.15;7.03;;;;;;;;;;5012439;28;20492;-78
2022/03/22 04:13:54;;;;;;;17.52;8.35;;;;;;;;;;5015901;28;20069;-78
2022/03/22 04:16:19;;;;;;;14.98;7.88;;;;;;;;;;5016008;28;20489;-79
2022/03/22 04:18:45;;;;;;;22.13;8.32;;;;;;;;;;5017077;28;20025;-77
2022/03/22 04:21:11;;;;;;;19.00;8.93;;;;;;;;;;5017629;28;20022;-79
2022/03/22 04:23:36;;;;;;;13.85;7.05;;;;;;;;;;5015081;28;20393;-79
2022/03/22 04:26:01;;;;;;;15.02;7.32;;;;;;;;;;5013985;28;20513;-79
2022/03/22 04:33:54;;;;;;;16.05;7.72;;;;;;;;;;5013753;28;20025;-78
2022/03/22 04:36:20;;;;;;;14.05;7.13;;;;;;;;;;5013700;28;20022;-80
2022/03/22 04:38:45;;;;;;;13.57;7.20;;;;;;;;;;5013482;28;20401;-79
2022/03/22 04:41:10;;;;;;;19.00;7.78;;;;;;;;;;5013775;28;20044;-79
2022/03/22 04:43:36;;;;;;;18.55;7.90;;;;;;;;;;5011154;28;20026;-79
2022/03/22 04:46:04;;;;;;;19.23;8.13;;;;;;;;;;5014078;28;20024;-79
2022/03/22 04:48:29;;;;;;;18.25;7.55;;;;;;;;;;5012275;28;20014;-79
2022/03/22 04:56:43;;;;;;;17.08;8.10;;;;;;;;;;5014173;28;20025;-79
2022/03/22 04:59:07;;;;;;;20.20;10.32;;;;;;;;;;5012551;28;20512;-79
2022/03/22 05:01:33;;;;;;;18.40;9.10;;;;;;;;;;5013361;28;20026;-79
2022/03/22 05:03:58;;;;;;;16.85;8.00;;;;;;;;;;5013715;28;20435;-78
2022/03/22 05:06:26;;;;;;;17.27;8.18;;;;;;;;;;5014303;28;20014;-78
2022/03/22 05:08:54;;;;;;;15.05;7.55;;;;;;;;;;5013827;28;20029;-78
2022/03/22 05:11:19;;;;;;;13.17;7.97;;;;;;;;;;5013891;28;20045;-78
2022/03/22 05:13:45;;;;;;;18.98;8.02;;;;;;;;;;5012434;28;20037;-78
2022/03/22 05:16:10;;;;;;;16.25;7.85;;;;;;;;;;5013285;28;20037;-80
2022/03/22 05:18:36;;;;;;;22.60;8.30;;;;;;;;;;5015181;28;20029;-79
2022/03/22 05:21:04;;;;;;;18.48;8.63;;;;;;;;;;5015241;28;20030;-79
2022/03/22 05:23:29;;;;;;;15.07;7.75;;;;;;;;;;5015330;28;20022;-79
2022/03/22 05:25:54;;;;;;;20.67;8.85;;;;;;;;;;5013300;28;20033;-79
2022/03/22 05:28:19;;;;;;;20.45;8.43;;;;;;;;;;5015037;28;20109;-77
2022/03/22 05:30:45;;;;;;;15.80;7.03;;;;;;;;;;5015014;28;20022;-78
2022/03/22 05:33:10;;;;;;;24.15;9.90;;;;;;;;;;5012905;28;20061;-77
2022/03/22 05:35:35;;;;;;;20.02;8.30;;;;;;;;;;5013867;28;20033;-77
2022/03/22 05:38:00;;;;;;;16.83;8.13;;;;;;;;;;5014733;28;20045;-78
2022/03/22 05:40:26;;;;;;;19.95;8.50;;;;;;;;;;5013448;28;20484;-77
2022/03/22 05:42:51;;;;;;;20.42;9.23;;;;;;;;;;5014469;28;20515;-79
2022/03/22 05:45:17;;;;;;;21.80;10.35;;;;;;;;;;5015588;28;20567;-79
2022/03/22 05:47:43;;;;;;;17.13;9.55;;;;;;;;;;5030837;28;20180;-79
2022/03/22 05:50:09;;;;;;;20.55;9.75;;;;;;;;;;5016528;28;20018;-78
2022/03/22 05:52:34;;;;;;;18.92;8.30;;;;;;;;;;5016337;28;20485;-79
2022/03/22 05:55:00;;;;;;;19.52;9.55;;;;;;;;;;5014312;28;20065;-80
2022/03/22 05:57:25;;;;;;;16.05;8.07;;;;;;;;;;5014450;28;20392;-79
2022/03/22 05:59:50;;;;;;;14.80;7.30;;;;;;;;;;5014850;28;20282;-79
2022/03/22 06:02:16;;;;;;;21.38;9.05;;;;;;;;;;5013364;28;20489;-79
2022/03/22 06:04:41;;;;;;;24.35;8.85;;;;;;;;;;5012952;28;20434;-79
2022/03/22 06:07:06;;;;;;;19.75;8.32;;;;;;;;;;5013778;28;20014;-80
2022/03/22 06:09:31;;;;;;;22.33;9.00;;;;;;;;;;5015496;28;20559;-79
2022/03/22 06:11:57;;;;;;;15.90;7.97;;;;;;;;;;5012531;28;20070;-79
2022/03/22 06:14:22;;;;;;;18.25;8.27;;;;;;;;;;5013864;28;20021;-79
2022/03/22 06:16:47;;;;;;;20.45;8.57;;;;;;;;;;5013541;28;20079;-77
2022/03/22 06:19:13;;;;;;;23.65;9.10;;;;;;;;;;5012149;28;20054;-78
2022/03/22 06:21:38;;;;;;;21.63;8.55;;;;;;;;;;5010771;28;20081;-78
2022/03/22 06:24:03;;;;;;;19.88;9.05;;;;;;;;;;5010924;28;20022;-78
2022/03/22 06:26:29;;;;;;;21.75;8.93;;;;;;;;;;5012096;28;20018;-77
2022/03/22 06:28:54;;;;;;;22.65;9.10;;;;;;;;;;5012080;28;20025;-77
2022/03/22 06:31:19;;;;;;;17.85;8.20;;;;;;;;;;5012149;28;20488;-79
2022/03/22 06:33:44;;;;;;;20.38;8.80;;;;;;;;;;5012640;28;20026;-77
2022/03/22 06:36:10;;;;;;;16.90;8.75;;;;;;;;;;5010934;28;20126;-77
2022/03/22 06:38:35;;;;;;;15.93;7.90;;;;;;;;;;5013583;28;20605;-78
2022/03/22 06:41:01;;;;;;;24.27;11.88;;;;;;;;;;5016408;28;20014;-77
2022/03/22 06:43:26;;;;;;;17.00;8.80;;;;;;;;;;5015398;28;20519;-79
2022/03/22 06:45:52;;;;;;;20.10;8.32;;;;;;;;;;5014848;28;20018;-77
2022/03/22 06:48:17;;;;;;;19.50;8.35;;;;;;;;;;5017911;28;20024;-79
2022/03/22 06:50:43;;;;;;;22.10;9.27;;;;;;;;;;5017321;28;21319;-77
2022/03/22 06:53:09;;;;;;;15.43;7.38;;;;;;;;;;5013694;28;20029;-79
2022/03/22 06:55:35;;;;;;;18.88;7.60;;;;;;;;;;5017186;28;20022;-79
2022/03/22 06:58:01;;;;;;;16.15;8.00;;;;;;;;;;5017343;28;20044;-78
2022/03/22 07:00:31;;;;;;;17.13;8.63;;;;;;;;;;5016461;28;20022;-78
2022/03/22 07:18:26;;;;;;;14.80;7.20;;;;;;;;;;5944991;23;20883;-84
2022/03/22 07:23:27;;;;;;;15.68;7.50;;;;;;;;;;5539695;23;20050;-83
2022/03/22 07:25:57;;;;;;;14.23;8.20;;;;;;;;;;5898510;23;20016;-85
2022/03/22 07:28:29;;;;;;;14.73;7.20;;;;;;;;;;5040300;28;20017;-87
2022/03/22 07:30:58;;;;;;;16.17;8.32;;;;;;;;;;5314766;23;20032;-86
2022/03/22 07:33:24;;;;;;;18.50;8.05;;;;;;;;;;5118667;23;20026;-86
2022/03/22 07:35:49;;;;;;;23.73;7.90;;;;;;;;;;5040078;28;20022;-86
2022/03/22 07:38:21;;;;;;;19.25;8.15;;;;;;;;;;5038839;28;20018;-88
2022/03/22 07:40:46;;;;;;;16.95;7.40;;;;;;;;;;5455488;23;20020;-88
2022/03/22 07:43:11;;;;;;;12.63;6.63;;;;;;;;;;5038936;28;20069;-88
2022/03/22 07:48:12;;;;;;;12.93;6.63;;;;;;;;;;6112384;23;20233;-89
2022/03/22 07:53:29;;;;;;;15.25;6.60;;;;;;;;;;5193280;23;20113;-90
2022/03/22 07:55:57;;;;;;;12.80;6.90;;;;;;;;;;5031462;28;20021;-89
2022/03/22 07:58:22;;;;;;;12.43;6.82;;;;;;;;;;5028052;28;20014;-90
2022/03/22 08:00:48;;;;;;;11.50;6.95;;;;;;;;;;5021388;28;20052;-91
2022/03/22 08:03:15;;;;;;;15.60;7.07;;;;;;;;;;5022220;28;20022;-91
2022/03/22 08:05:41;;;;;;;12.38;6.68;;;;;;;;;;5024036;28;20029;-90
2022/03/22 08:08:07;;;;;;;17.05;7.20;;;;;;;;;;5024351;28;20073;-90
2022/03/22 08:10:32;;;;;;;11.65;6.80;;;;;;;;;;5034323;28;20006;-90
2022/03/22 08:13:02;;;;;;;17.98;7.40;;;;;;;;;;5035212;28;20098;-89
2022/03/22 08:15:27;;;;;;;11.15;6.22;;;;;;;;;;5035592;28;20046;-90
2022/03/22 08:17:52;;;;;;;14.35;6.57;;;;;;;;;;5035300;28;20009;-91
2022/03/22 08:20:18;;;;;;;16.10;6.75;;;;;;;;;;5037329;28;20044;-92
2022/03/22 08:22:50;;;;;;;13.63;7.03;;;;;;;;;;5037095;28;20109;-91
2022/03/22 08:25:24;;;;;;;11.90;6.85;;;;;;;;;;5036766;28;20021;-91
2022/03/22 08:27:53;;;;;;;16.08;6.72;;;;;;;;;;5028758;28;20010;-90
2022/03/22 08:30:21;;;;;;;12.88;6.78;;;;;;;;;;5036257;28;20018;-91
2022/03/22 08:32:47;;;;;;;11.10;6.05;;;;;;;;;;5034719;28;20030;-91
2022/03/22 08:35:12;;;;;;;11.65;6.55;;;;;;;;;;5035135;28;20025;-91
2022/03/22 08:37:38;;;;;;;10.90;6.13;;;;;;;;;;5035995;28;20102;-91
2022/03/22 08:40:03;;;;;;;14.30;6.50;;;;;;;;;;5034940;28;20291;-89
2022/03/22 08:42:28;;;;;;;14.15;6.53;;;;;;;;;;5034852;28;20010;-89
2022/03/22 08:44:54;;;;;;;12.32;6.28;;;;;;;;;;5018063;28;20366;-91
2022/03/22 08:47:19;;;;;;;12.68;6.82;;;;;;;;;;5017931;28;20020;-91
2022/03/22 08:49:44;;;;;;;15.00;6.55;;;;;;;;;;5017120;28;20018;-91
2022/03/22 08:52:10;;;;;;;14.23;6.18;;;;;;;;;;5015043;28;20616;-89
2022/03/22 08:54:35;;;;;;;16.45;6.38;;;;;;;;;;5017606;28;20042;-87
2022/03/22 08:57:01;;;;;;;14.50;5.78;;;;;;;;;;5014860;28;20022;-88
2022/03/22 08:59:26;;;;;;;12.48;6.25;;;;;;;;;;5016171;28;20532;-90
2022/03/22 09:01:51;;;;;;;13.75;6.72;;;;;;;;;;5014511;28;20010;-91
2022/03/22 09:07:01;;;;;;;12.18;6.43;;;;;;;;;;5014473;28;20639;-90
2022/03/22 09:09:29;;;;;;;11.10;6.05;;;;;;;;;;5015119;28;20082;-89
2022/03/22 09:11:54;;;;;;;12.68;6.28;;;;;;;;;;5014828;28;20018;-92
2022/03/22 09:14:20;;;;;;;17.73;8.60;;;;;;;;;;5015059;28;20018;-91
2022/03/22 09:16:48;;;;;;;12.50;6.25;;;;;;;;;;5014157;28;20029;-91
2022/03/22 09:19:20;;;;;;;12.82;6.57;;;;;;;;;;5015702;28;20385;-90
2022/03/22 09:21:46;;;;;;;12.45;6.50;;;;;;;;;;5014440;28;20026;-90
2022/03/22 09:24:11;;;;;;;8.77;5.55;;;;;;;;;;5012834;28;20028;-93
2022/03/22 09:26:39;;;;;;;12.27;5.90;;;;;;;;;;5013627;28;20014;-91
2022/03/22 09:29:05;;;;;;;15.05;5.78;;;;;;;;;;5013509;28;20018;-92
2022/03/22 09:31:30;;;;;;;11.38;6.70;;;;;;;;;;5012327;28;20402;-92
2022/03/22 09:33:57;;;;;;;18.05;6.43;;;;;;;;;;5013769;28;20500;-92
2022/03/22 09:36:24;;;;;;;12.48;6.15;;;;;;;;;;5014292;28;20022;-91
2022/03/22 09:38:50;;;;;;;14.50;5.82;;;;;;;;;;5010705;28;20023;-91
2022/03/22 09:41:15;;;;;;;11.27;6.20;;;;;;;;;;5021046;28;20056;-92
2022/03/22 09:43:46;;;;;;;14.82;6.80;;;;;;;;;;5019405;28;20030;-92
2022/03/22 09:46:13;;;;;;;14.32;6.63;;;;;;;;;;5013107;28;20013;-92
2022/03/22 09:48:38;;;;;;;16.05;6.97;;;;;;;;;;5013201;28;20018;-91
2022/03/22 09:53:47;;;;;;;12.07;6.03;;;;;;;;;;4994997;28;20041;-90
2022/03/22 09:56:13;;;;;;;12.07;6.00;;;;;;;;;;4997158;28;20018;-89
2022/03/22 09:58:38;;;;;;;14.82;6.72;;;;;;;;;;5011638;28;20497;-91
2022/03/22 10:01:04;;;;;;;11.18;6.15;;;;;;;;;;5017088;28;20393;-89
2022/03/22 10:03:29;;;;;;;17.05;6.18;;;;;;;;;;5012625;28;20017;-89
2022/03/22 10:05:59;;;;;;;10.80;5.85;;;;;;;;;;5020416;28;20091;-90
2022/03/22 10:08:24;;;;;;;12.77;6.43;;;;;;;;;;5018275;28;20022;-88
2022/03/22 10:10:54;;;;;;;12.43;6.22;;;;;;;;;;5014859;28;20389;-89
2022/03/22 10:13:19;;;;;;;10.70;6.13;;;;;;;;;;5035758;28;20021;-88
2022/03/22 10:15:45;;;;;;;14.43;6.25;;;;;;;;;;5027557;28;20109;-89
2022/03/22 10:18:10;;;;;;;12.95;6.72;;;;;;;;;;4997472;28;20034;-89
2022/03/22 10:20:40;;;;;;;13.65;6.82;;;;;;;;;;5015785;28;20029;-89
2022/03/22 10:23:06;;;;;;;11.00;6.07;;;;;;;;;;5019351;28;20026;-90
2022/03/22 10:25:33;;;;;;;11.15;6.18;;;;;;;;;;5037544;28;20018;-89
2022/03/22 10:28:00;;;;;;;13.15;6.38;;;;;;;;;;5038354;28;20029;-87
2022/03/22 10:30:26;;;;;;;12.30;6.15;;;;;;;;;;5025819;28;20056;-90
2022/03/22 10:32:51;;;;;;;10.45;6.88;;;;;;;;;;5014574;28;20026;-88
2022/03/22 10:35:27;;;;;;;12.77;6.55;;;;;;;;;;5014419;28;20067;-90
2022/03/22 10:37:54;;;;;;;12.80;6.97;;;;;;;;;;5000285;28;20033;-88
2022/03/22 10:40:20;;;;;;;10.10;6.35;;;;;;;;;;4998692;28;20022;-87
2022/03/22 10:42:45;;;;;;;13.30;6.88;;;;;;;;;;4997544;28;20046;-86
2022/03/22 10:45:11;;;;;;;13.93;6.90;;;;;;;;;;4998057;28;20015;-86
2022/03/22 10:47:36;;;;;;;11.50;6.68;;;;;;;;;;5011121;28;20017;-88
2022/03/22 10:50:08;;;;;;;12.52;6.50;;;;;;;;;;5014563;28;20021;-87
2022/03/22 10:52:33;;;;;;;20.92;6.95;;;;;;;;;;5023082;28;20030;-86
2022/03/22 10:54:59;;;;;;;13.85;6.57;;;;;;;;;;5013437;28;20036;-86
2022/03/22 10:57:32;;;;;;;9.43;6.25;;;;;;;;;;5017867;28;20014;-85
2022/03/22 10:59:59;;;;;;;10.13;6.90;;;;;;;;;;4999298;28;20030;-86
2022/03/22 11:02:25;;;;;;;11.82;7.03;;;;;;;;;;5012551;28;20097;-86
2022/03/22 11:04:51;;;;;;;11.18;6.47;;;;;;;;;;5010496;28;20489;-86
2022/03/22 11:07:16;;;;;;;11.80;7.47;;;;;;;;;;5013388;28;20028;-85
2022/03/22 11:09:42;;;;;;;12.52;7.43;;;;;;;;;;5015879;28;20085;-87
2022/03/22 11:12:07;;;;;;;9.95;6.28;;;;;;;;;;5017163;28;20030;-86
2022/03/22 11:14:34;;;;;;;8.50;6.03;;;;;;;;;;5012682;28;20037;-84
2022/03/22 11:16:59;;;;;;;10.93;6.55;;;;;;;;;;5006814;28;20080;-85
2022/03/22 11:19:25;;;;;;;14.82;6.93;;;;;;;;;;5010440;28;20418;-84
2022/03/22 11:21:50;;;;;;;12.32;6.28;;;;;;;;;;5015820;28;20551;-85
2022/03/22 11:24:22;;;;;;;12.55;6.43;;;;;;;;;;5027257;28;20036;-84
2022/03/22 11:26:51;;;;;;;10.75;6.53;;;;;;;;;;5035626;28;20025;-85
2022/03/22 11:29:19;;;;;;;9.48;6.40;;;;;;;;;;5034619;28;20017;-86
2022/03/22 11:34:08;;;;;;;10.48;6.45;;;;;;;;;;5024635;28;20022;-85
2022/03/22 11:34:31;;;;;;;10.48;6.30;;;;;;;;;;5005680;28;20079;-85
2022/03/22 11:36:58;;;;;;;10.98;6.53;;;;;;;;;;5012889;28;20026;-87
2022/03/22 11:42:15;;;;;;;10.10;6.90;;;;;;;;;;5010979;28;20025;-87
2022/03/22 11:42:17;;;;;;;9.23;6.00;;;;;;;;;;5012465;28;20014;-86
2022/03/22 11:44:45;;;;;;;19.20;6.72;;;;;;;;;;5029865;28;20014;-86
2022/03/22 11:47:14;;;;;;;;;;;;;;;;;;5021100;28;20088;-84
2022/03/22 11:50:06;;;;;;;13.70;6.63;;;;;;;;;;5032439;28;19912;-84
2022/03/22 11:52:41;;;;;;;11.98;7.45;;;;;;;;;;5028930;28;20093;-87
2022/03/22 11:55:20;;;;;;;10.68;6.65;;;;;;;;;;5029112;28;20102;-86
2022/03/22 11:57:47;;;;;;;12.70;7.53;;;;;;;;;;5012558;28;20081;-83
2022/03/22 12:00:18;;;;;;;15.50;7.05;;;;;;;;;;5008439;28;20501;-87
2022/03/22 12:02:47;;;;;;;11.15;7.20;;;;;;;;;;5007019;28;20038;-85
2022/03/22 12:05:13;;;;;;;11.85;7.15;;;;;;;;;;5009032;28;20166;-86
2022/03/22 12:07:39;;;;;;;11.32;6.05;;;;;;;;;;5024375;28;20434;-87
2022/03/22 12:10:07;;;;;;;9.32;5.88;;;;;;;;;;5023766;28;20077;-86
2022/03/22 12:12:32;;;;;;;;;;;;;;;;;;5037176;28;20473;-85
2022/03/22 12:15:00;;;;;;;18.60;6.95;;;;;;;;;;5044088;28;19984;-87
2022/03/22 12:17:25;;;;;;;9.68;5.60;;;;;;;;;;5043040;28;20028;-87
2022/03/22 12:19:50;;;;;;;13.93;6.80;;;;;;;;;;5042654;28;20025;-87
2022/03/22 12:22:16;;;;;;;9.77;6.88;;;;;;;;;;5044337;28;20048;-88
2022/03/22 12:24:43;;;;;;;10.18;7.20;;;;;;;;;;5048924;28;20052;-86
2022/03/22 12:27:09;;;;;;;17.45;9.65;;;;;;;;;;5053764;28;20032;-86
2022/03/22 12:29:44;;;;;;;20.80;12.15;;;;;;;;;;5055128;28;20020;-87
2022/03/22 12:32:13;;;;;;;15.73;9.20;;;;;;;;;;5054878;28;20443;-87
2022/03/22 12:34:39;;;;;;;18.02;9.68;;;;;;;;;;5055111;28;20096;-88
2022/03/22 12:37:07;;;;;;;16.55;9.45;;;;;;;;;;5048889;28;20462;-88
2022/03/22 12:39:33;;;;;;;;;;;;;;;;;;5042841;28;20013;-87
2022/03/22 12:41:59;;;;;;;22.07;11.07;;;;;;;;;;5032211;28;19940;-88
2022/03/22 12:44:25;;;;;;;17.42;10.02;;;;;;;;;;5023352;28;20032;-86
2022/03/22 12:46:51;;;;;;;11.20;6.90;;;;;;;;;;5018479;28;20043;-87
2022/03/22 12:49:17;;;;;;;17.92;9.15;;;;;;;;;;5017220;28;20105;-85
2022/03/22 12:51:43;;;;;;;13.80;9.13;;;;;;;;;;5020255;28;20029;-86
2022/03/22 12:54:09;;;;;;;13.02;7.10;;;;;;;;;;5008646;28;20027;-87
2022/03/22 12:56:35;;;;;;;10.43;5.82;;;;;;;;;;4995460;28;20113;-85
2022/03/22 12:59:01;;;;;;;10.63;7.13;;;;;;;;;;4993119;28;20502;-86
2022/03/22 13:01:36;;;;;;;10.00;5.95;;;;;;;;;;4993445;28;20125;-87
2022/03/22 13:04:01;;;;;;;9.40;6.05;;;;;;;;;;4995597;28;20022;-87
2022/03/22 13:06:32;;;;;;;18.25;8.77;;;;;;;;;;4977179;28;20046;-88
2022/03/22 13:11:44;;;;;;;11.90;7.65;;;;;;;;;;5012715;28;20021;-88
2022/03/22 13:16:56;;;;;;;12.68;7.85;;;;;;;;;;5012839;28;20403;-88
2022/03/22 13:19:22;;;;;;;14.40;7.50;;;;;;;;;;5010780;28;20118;-89
2022/03/22 13:21:51;;;;;;;12.63;7.20;;;;;;;;;;5006437;28;20379;-88
2022/03/22 13:24:23;;;;;;;14.80;8.27;;;;;;;;;;5002789;28;20470;-88
2022/03/22 13:26:59;;;;;;;12.13;7.20;;;;;;;;;;4993223;28;20026;-88
2022/03/22 13:29:34;;;;;;;11.05;7.25;;;;;;;;;;4992237;28;20104;-88
2022/03/22 13:32:07;;;;;;;13.20;7.95;;;;;;;;;;4993565;28;20029;-87
2022/03/22 13:34:37;;;;;;;13.98;6.75;;;;;;;;;;5005928;28;20180;-87
2022/03/22 13:37:04;;;;;;;11.02;6.65;;;;;;;;;;5012757;28;20021;-87
2022/03/22 13:39:29;;;;;;;10.82;7.40;;;;;;;;;;5012059;28;20093;-86
2022/03/22 13:42:24;;;;;;;10.60;6.47;;;;;;;;;;5011546;28;20099;-87
2022/03/22 13:44:56;;;;;;;12.32;8.00;;;;;;;;;;4992859;28;20034;-88
2022/03/22 13:47:29;;;;;;;12.35;7.05;;;;;;;;;;5013553;28;20021;-88
2022/03/22 13:49:54;;;;;;;11.57;7.70;;;;;;;;;;5015004;28;20026;-86
2022/03/22 13:52:27;;;;;;;11.68;7.93;;;;;;;;;;5014236;28;20033;-86
2022/03/22 13:54:53;;;;;;;9.93;7.20;;;;;;;;;;5014905;28;20089;-86
2022/03/22 13:57:28;;;;;;;13.05;7.65;;;;;;;;;;5016056;28;20022;-86
2022/03/22 14:00:00;;;;;;;16.38;7.40;;;;;;;;;;5015567;28;20029;-86
2022/03/22 14:02:25;;;;;;;11.93;7.90;;;;;;;;;;5015505;28;20096;-86
2022/03/22 14:04:55;;;;;;;13.30;6.78;;;;;;;;;;5017093;28;20389;-87
2022/03/22 14:07:20;;;;;;;10.70;6.40;;;;;;;;;;5017667;28;20096;-86
2022/03/22 14:09:45;;;;;;;14.43;6.30;;;;;;;;;;5018207;28;20469;-85
2022/03/22 14:12:11;;;;;;;8.32;6.35;;;;;;;;;;5020990;28;20022;-85
2022/03/22 14:14:36;;;;;;;12.25;6.60;;;;;;;;;;5024125;28;20042;-84
2022/03/22 14:17:01;;;;;;;9.18;6.90;;;;;;;;;;5022133;28;20029;-85
2022/03/22 14:19:26;;;;;;;10.55;5.78;;;;;;;;;;5018202;28;20033;-84
2022/03/22 14:21:52;;;;;;;10.77;6.13;;;;;;;;;;5015920;28;20112;-85
2022/03/22 14:24:17;;;;;;;7.10;5.43;;;;;;;;;;5015903;28;20022;-84
2022/03/22 14:26:43;;;;;;;9.73;5.60;;;;;;;;;;5016048;28;20321;-85
2022/03/22 14:29:08;;;;;;;10.07;6.07;;;;;;;;;;5013892;28;20322;-85
2022/03/22 14:31:33;;;;;;;7.65;5.65;;;;;;;;;;5015121;28;20022;-84
2022/03/22 14:33:59;;;;;;;8.80;5.68;;;;;;;;;;5015866;28;20080;-84
2022/03/22 14:36:24;;;;;;;8.05;5.65;;;;;;;;;;5014137;28;20026;-84
2022/03/22 14:38:49;;;;;;;7.87;5.63;;;;;;;;;;5013362;28;20069;-84
2022/03/22 14:41:31;;;;;;;9.20;5.90;;;;;;;;;;5015057;28;20018;-84
2022/03/22 14:43:57;;;;;;;7.50;5.13;;;;;;;;;;5013186;28;20092;-85
2022/03/22 14:46:23;;;;;;;15.13;6.13;;;;;;;;;;5015053;28;20014;-84
2022/03/22 14:48:51;;;;;;;8.88;5.50;;;;;;;;;;5014497;28;20056;-84
2022/03/22 14:51:18;;;;;;;;;;;;;;;;;;4996767;28;20034;-85
2022/03/22 14:54:04;;;;;;;30.23;8.35;;;;;;;;;;4995581;28;19913;-83
2022/03/22 14:59:15;;;;;;;10.75;6.82;;;;;;;;;;5014074;28;20609;-84
2022/03/22 15:01:41;;;;;;;7.40;5.30;;;;;;;;;;5016116;28;20104;-84
2022/03/22 15:04:06;;;;;;;16.73;6.55;;;;;;;;;;5015456;28;20486;-85
2022/03/22 15:06:32;;;;;;;10.73;5.53;;;;;;;;;;5013411;28;20079;-85
2022/03/22 15:08:57;;;;;;;7.90;5.65;;;;;;;;;;5015205;28;20330;-84
2022/03/22 15:11:23;;;;;;;10.43;6.18;;;;;;;;;;5013277;28;20022;-85
2022/03/22 15:13:49;;;;;;;9.10;5.88;;;;;;;;;;5016190;28;20037;-85
2022/03/22 15:16:16;;;;;;;7.82;5.28;;;;;;;;;;5015101;28;20092;-85
2022/03/22 15:18:41;;;;;;;8.07;5.57;;;;;;;;;;5013885;28;20018;-83
2022/03/22 15:21:08;;;;;;;12.27;7.18;;;;;;;;;;5014907;28;20018;-84
2022/03/22 15:23:33;;;;;;;10.60;6.18;;;;;;;;;;5017262;28;20032;-83
2022/03/22 15:25:58;;;;;;;9.05;5.65;;;;;;;;;;5022328;28;20097;-83